Great Animation — VRHZ2 — position and weather

sailwx.info

Track history (hours):
 
Tides and Currents Weather Stations Pressure Air Temp Water Temp Dewpoint Dewpoint Depression Visibility Wind Speed Wind Dir Waves Ship Positions

Great Animation

Last reported at 2017-Sep-25 21:34 UTC. Time now 2017-Oct-19 16:32 UTC.
Position S 28°23' E 154°04'.
Warning: this ship's position is 23 days out of date.

Length 229 m; draft 14.9 m.

Type: Cargo ship. MMSI: 477550100.

Date/timePositionNaut miles runAvg speedWind from/ knotsBaromVisibWave heightAir tempDewpointWater temp
2017-Sep-25 21:34S 28°23' E 154°04'110.9
2017-Sep-25 21:29S 28°24' E 154°04'254 9.3
2017-Sep-24 18:13S 32°27' E 152°39'210.7
2017-Sep-24 18:00S 32°29' E 152°38'610.6
2017-Sep-24 17:28S 32°34' E 152°36'510.5
2017-Sep-24 17:00S 32°39' E 152°33'510.7
2017-Sep-24 16:30S 32°43' E 152°31'610.6
2017-Sep-24 15:58S 32°49' E 152°28'5 9.3
2017-Sep-24 15:28S 32°52' E 152°25'510.4
2017-Sep-24 15:00S 32°53' E 152°19'510.2
2017-Sep-24 14:30S 32°54' E 152°13'510.3
2017-Sep-24 14:00S 32°55' E 152°07'510.4
2017-Sep-24 13:30S 32°56' E 152°01'510.3
2017-Sep-24 13:00S 32°58' E 151°55'6 8.9
2017-Sep-24 12:19S 32°55' E 151°49'2 5.2
2017-Sep-24 12:00S 32°55' E 151°47'2 3.3
2017-Sep-24 11:27S 32°53' E 151°46'  
2017-Sep-22 01:44S 33°10' E 152°04'0 0.9
2017-Sep-22 01:20S 33°09' E 152°04'0 0.9
2017-Sep-22 00:56S 33°09' E 152°05'0 0.9
2017-Sep-22 00:29S 33°09' E 152°05'0 0.9
2017-Sep-21 23:58S 33°08' E 152°05'1 1.1
2017-Sep-21 23:29S 33°08' E 152°05'0 1.0
2017-Sep-21 22:59S 33°08' E 152°06'0 0.9
2017-Sep-21 22:29S 33°07' E 152°06'0 0.9
2017-Sep-21 21:59S 33°07' E 152°06'0 0.9
2017-Sep-21 21:29S 33°06' E 152°07'0 0.9
2017-Sep-21 21:01S 33°06' E 152°07'1 2.1
2017-Sep-21 20:31S 33°06' E 152°06'611.5
2017-Sep-21 20:00S 33°10' E 152°00'612.1
2017-Sep-21 19:30S 33°13' E 151°54'611.8
2017-Sep-21 19:00S 33°16' E 151°48'2 3.8
2017-Sep-21 18:28S 33°16' E 151°46'1 1.5
2017-Sep-21 17:58S 33°16' E 151°46'1 1.5
2017-Sep-21 17:28S 33°15' E 151°47'1 1.5
2017-Sep-21 16:58S 33°15' E 151°48'4 1.4
2017-Sep-21 14:07S 33°13' E 151°52'0 1.7
2017-Sep-21 13:58S 33°13' E 151°52'1 1.8
2017-Sep-21 13:16S 33°12' E 151°53'1 1.7
2017-Sep-21 12:49S 33°11' E 151°54'1 1.9
2017-Sep-21 12:28S 33°11' E 151°55'1 1.9
2017-Sep-21 11:58S 33°10' E 151°55'1 2.0
2017-Sep-21 11:28S 33°10' E 151°56'1 2.1
2017-Sep-21 10:46S 33°09' E 151°58'1 2.2
2017-Sep-21 10:28S 33°09' E 151°59'1 2.3
2017-Sep-21 09:58S 33°08' E 151°60'1 2.2
2017-Sep-21 09:28S 33°08' E 152°01'2 2.1
2017-Sep-21 08:31S 33°08' E 152°04'0 2.0
2017-Sep-21 08:28S 33°08' E 152°04'1 2.0
2017-Sep-21 07:58S 33°08' E 152°05'1 1.7
2017-Sep-21 07:28S 33°08' E 152°06'1 1.7
2017-Sep-21 07:00S 33°08' E 152°07'2 4.7
2017-Sep-21 06:30S 33°06' E 152°08'612.3
2017-Sep-21 06:00S 32°60' E 152°11'612.0
2017-Sep-21 05:30S 32°54' E 152°13'3 4.8
2017-Sep-21 04:58S 32°53' E 152°16'1 1.3
2017-Sep-21 04:28S 32°54' E 152°17'1 1.3
2017-Sep-21 03:58S 32°54' E 152°18'1 1.3
2017-Sep-21 03:28S 32°55' E 152°18'1 1.1
2017-Sep-21 02:58S 32°55' E 152°19'1 1.1
2017-Sep-21 02:28S 32°55' E 152°19'1 0.9
2017-Sep-21 01:52S 32°56' E 152°19'1 0.6
2017-Sep-20 23:31S 32°57' E 152°18'0 0.7
2017-Sep-20 23:28S 32°57' E 152°18'0 0.7
2017-Sep-20 22:55S 32°57' E 152°18'0 0.9
2017-Sep-20 22:25S 32°58' E 152°18'0 1.0
2017-Sep-20 21:55S 32°58' E 152°17'1 1.2
2017-Sep-20 21:28S 32°59' E 152°17'1 1.0
2017-Sep-20 20:55S 32°59' E 152°16'0 1.0
2017-Sep-20 20:28S 32°59' E 152°16'1 0.8
2017-Sep-20 19:40S 32°60' E 152°15'1 0.3
2017-Sep-20 16:43S 33°00' E 152°15'0 0.4
2017-Sep-20 16:13S 33°00' E 152°15'0 0.4
2017-Sep-20 15:55S 32°60' E 152°15'0 0.6
2017-Sep-20 15:19S 32°60' E 152°15'0 0.6
2017-Sep-20 14:40S 32°59' E 152°15'0 0.4
2017-Sep-20 13:22S 32°59' E 152°15'1 0.7
2017-Sep-20 11:52S 32°59' E 152°16'0 1.2
2017-Sep-20 11:28S 32°59' E 152°17'3 1.0
2017-Sep-20 08:19S 33°01' E 152°20'1 3.4
2017-Sep-20 07:53S 32°59' E 152°20'410.8
2017-Sep-20 07:30S 32°55' E 152°20'612.2
2017-Sep-20 07:00S 32°50' E 152°23'5 9.3
2017-Sep-20 06:31S 32°45' E 152°24'1 1.3
2017-Sep-20 05:59S 32°46' E 152°24'1 1.2
2017-Sep-20 05:29S 32°46' E 152°24'1 1.2
2017-Sep-20 04:59S 32°47' E 152°24'1 1.1
2017-Sep-20 04:29S 32°47' E 152°24'1 1.1
2017-Sep-20 03:56S 32°48' E 152°24'0 1.0
2017-Sep-20 03:29S 32°48' E 152°24'1 1.0
2017-Sep-20 02:59S 32°49' E 152°23'0 1.0
2017-Sep-20 02:29S 32°49' E 152°23'0 1.0
2017-Sep-20 01:59S 32°50' E 152°23'0 0.8
2017-Sep-20 01:29S 32°50' E 152°22'0 0.8
2017-Sep-20 00:59S 32°50' E 152°22'0 0.9
2017-Sep-20 00:29S 32°51' E 152°22'0 0.8
2017-Sep-19 23:59S 32°51' E 152°22'0 0.8
2017-Sep-19 23:29S 32°51' E 152°21'0 0.8
2017-Sep-19 22:59S 32°52' E 152°21'0 0.7
2017-Sep-19 22:29S 32°52' E 152°21'0 0.6
2017-Sep-19 21:59S 32°52' E 152°21'0 0.6
2017-Sep-19 21:29S 32°53' E 152°21'0 0.5
2017-Sep-19 21:00S 32°53' E 152°21'0 0.5
2017-Sep-19 20:30S 32°53' E 152°21'0 0.5
2017-Sep-19 19:57S 32°53' E 152°21'0 0.6
2017-Sep-19 19:27S 32°53' E 152°20'0 0.5
2017-Sep-19 18:45S 32°54' E 152°20'0 0.5
2017-Sep-19 18:30S 32°54' E 152°20'0 0.6
2017-Sep-19 17:57S 32°54' E 152°20'0 0.7
2017-Sep-19 17:27S 32°55' E 152°20'0 0.8
2017-Sep-19 17:00S 32°55' E 152°20'0 0.7
2017-Sep-19 16:30S 32°55' E 152°20'0 0.8
2017-Sep-19 16:00S 32°56' E 152°19'1 1.0
2017-Sep-19 15:21S 32°56' E 152°19'0 1.1
2017-Sep-19 15:00S 32°57' E 152°19'1 1.2
2017-Sep-19 14:30S 32°57' E 152°18'1 1.5
2017-Sep-19 14:00S 32°58' E 152°18'1 1.4
2017-Sep-19 13:30S 32°58' E 152°17'1 1.5
2017-Sep-19 13:00S 32°59' E 152°17'1 1.5
2017-Sep-19 12:30S 32°60' E 152°16'1 1.5
2017-Sep-19 11:57S 33°00' E 152°16'1 1.5
2017-Sep-19 11:28S 33°01' E 152°16'1 2.4
2017-Sep-19 10:59S 33°01' E 152°14'3 6.2
2017-Sep-19 10:30S 33°00' E 152°11'5 9.4
2017-Sep-19 10:00S 32°57' E 152°07'3 5.5
2017-Sep-19 09:30S 32°55' E 152°08'612.9
2017-Sep-19 09:00S 32°54' E 152°16'613.0
2017-Sep-19 08:30S 32°53' E 152°24'611.4
2017-Sep-19 08:00S 32°49' E 152°28'611.8
2017-Sep-19 07:30S 32°44' E 152°31'28513.3
2017-Sep-18 10:04S 28°10' E 154°04'313.0
2017-Sep-18 09:52S 28°08' E 154°04'  
Track history (hours):
 
Tides and Currents Weather Stations Pressure Air Temp Water Temp Dewpoint Dewpoint Depression Visibility Wind Speed Wind Dir Waves Ship Positions

Great Animation

Last reported at 2017-Sep-25 21:34 UTC. Time now 2017-Oct-19 16:32 UTC.
Position S 28°23' E 154°04'.
Warning: this ship's position is 23 days out of date.

Length 229 m; draft 14.9 m.

Type: Cargo ship. MMSI: 477550100.

Date/timePositionNaut miles runAvg speedWind from/ knotsBaromVisibWave heightAir tempDewpointWater temp
2017-Sep-25 21:34S 28°23' E 154°04'110.9
2017-Sep-25 21:29S 28°24' E 154°04'254 9.3
2017-Sep-24 18:13S 32°27' E 152°39'210.7
2017-Sep-24 18:00S 32°29' E 152°38'610.6
2017-Sep-24 17:28S 32°34' E 152°36'510.5
2017-Sep-24 17:00S 32°39' E 152°33'510.7
2017-Sep-24 16:30S 32°43' E 152°31'610.6
2017-Sep-24 15:58S 32°49' E 152°28'5 9.3
2017-Sep-24 15:28S 32°52' E 152°25'510.4
2017-Sep-24 15:00S 32°53' E 152°19'510.2
2017-Sep-24 14:30S 32°54' E 152°13'510.3
2017-Sep-24 14:00S 32°55' E 152°07'510.4
2017-Sep-24 13:30S 32°56' E 152°01'510.3
2017-Sep-24 13:00S 32°58' E 151°55'6 8.9
2017-Sep-24 12:19S 32°55' E 151°49'2 5.2
2017-Sep-24 12:00S 32°55' E 151°47'2 3.3
2017-Sep-24 11:27S 32°53' E 151°46'  
2017-Sep-22 01:44S 33°10' E 152°04'0 0.9
2017-Sep-22 01:20S 33°09' E 152°04'0 0.9
2017-Sep-22 00:56S 33°09' E 152°05'0 0.9
2017-Sep-22 00:29S 33°09' E 152°05'0 0.9
2017-Sep-21 23:58S 33°08' E 152°05'1 1.1
2017-Sep-21 23:29S 33°08' E 152°05'0 1.0
2017-Sep-21 22:59S 33°08' E 152°06'0 0.9
2017-Sep-21 22:29S 33°07' E 152°06'0 0.9
2017-Sep-21 21:59S 33°07' E 152°06'0 0.9
2017-Sep-21 21:29S 33°06' E 152°07'0 0.9
2017-Sep-21 21:01S 33°06' E 152°07'1 2.1
2017-Sep-21 20:31S 33°06' E 152°06'611.5
2017-Sep-21 20:00S 33°10' E 152°00'612.1
2017-Sep-21 19:30S 33°13' E 151°54'611.8
2017-Sep-21 19:00S 33°16' E 151°48'2 3.8
2017-Sep-21 18:28S 33°16' E 151°46'1 1.5
2017-Sep-21 17:58S 33°16' E 151°46'1 1.5
2017-Sep-21 17:28S 33°15' E 151°47'1 1.5
2017-Sep-21 16:58S 33°15' E 151°48'4 1.4
2017-Sep-21 14:07S 33°13' E 151°52'0 1.7
2017-Sep-21 13:58S 33°13' E 151°52'1 1.8
2017-Sep-21 13:16S 33°12' E 151°53'1 1.7
2017-Sep-21 12:49S 33°11' E 151°54'1 1.9
2017-Sep-21 12:28S 33°11' E 151°55'1 1.9
2017-Sep-21 11:58S 33°10' E 151°55'1 2.0
2017-Sep-21 11:28S 33°10' E 151°56'1 2.1
2017-Sep-21 10:46S 33°09' E 151°58'1 2.2
2017-Sep-21 10:28S 33°09' E 151°59'1 2.3
2017-Sep-21 09:58S 33°08' E 151°60'1 2.2
2017-Sep-21 09:28S 33°08' E 152°01'2 2.1
2017-Sep-21 08:31S 33°08' E 152°04'0 2.0
2017-Sep-21 08:28S 33°08' E 152°04'1 2.0
2017-Sep-21 07:58S 33°08' E 152°05'1 1.7
2017-Sep-21 07:28S 33°08' E 152°06'1 1.7
2017-Sep-21 07:00S 33°08' E 152°07'2 4.7
2017-Sep-21 06:30S 33°06' E 152°08'612.3
2017-Sep-21 06:00S 32°60' E 152°11'612.0
2017-Sep-21 05:30S 32°54' E 152°13'3 4.8
2017-Sep-21 04:58S 32°53' E 152°16'1 1.3
2017-Sep-21 04:28S 32°54' E 152°17'1 1.3
2017-Sep-21 03:58S 32°54' E 152°18'1 1.3
2017-Sep-21 03:28S 32°55' E 152°18'1 1.1
2017-Sep-21 02:58S 32°55' E 152°19'1 1.1
2017-Sep-21 02:28S 32°55' E 152°19'1 0.9
2017-Sep-21 01:52S 32°56' E 152°19'1 0.6
2017-Sep-20 23:31S 32°57' E 152°18'0 0.7
2017-Sep-20 23:28S 32°57' E 152°18'0 0.7
2017-Sep-20 22:55S 32°57' E 152°18'0 0.9
2017-Sep-20 22:25S 32°58' E 152°18'0 1.0
2017-Sep-20 21:55S 32°58' E 152°17'1 1.2
2017-Sep-20 21:28S 32°59' E 152°17'1 1.0
2017-Sep-20 20:55S 32°59' E 152°16'0 1.0
2017-Sep-20 20:28S 32°59' E 152°16'1 0.8
2017-Sep-20 19:40S 32°60' E 152°15'1 0.3
2017-Sep-20 16:43S 33°00' E 152°15'0 0.4
2017-Sep-20 16:13S 33°00' E 152°15'0 0.4
2017-Sep-20 15:55S 32°60' E 152°15'0 0.6
2017-Sep-20 15:19S 32°60' E 152°15'0 0.6
2017-Sep-20 14:40S 32°59' E 152°15'0 0.4
2017-Sep-20 13:22S 32°59' E 152°15'1 0.7
2017-Sep-20 11:52S 32°59' E 152°16'0 1.2
2017-Sep-20 11:28S 32°59' E 152°17'3 1.0
2017-Sep-20 08:19S 33°01' E 152°20'1 3.4
2017-Sep-20 07:53S 32°59' E 152°20'410.8
2017-Sep-20 07:30S 32°55' E 152°20'612.2
2017-Sep-20 07:00S 32°50' E 152°23'5 9.3
2017-Sep-20 06:31S 32°45' E 152°24'1 1.3
2017-Sep-20 05:59S 32°46' E 152°24'1 1.2
2017-Sep-20 05:29S 32°46' E 152°24'1 1.2
2017-Sep-20 04:59S 32°47' E 152°24'1 1.1
2017-Sep-20 04:29S 32°47' E 152°24'1 1.1
2017-Sep-20 03:56S 32°48' E 152°24'0 1.0
2017-Sep-20 03:29S 32°48' E 152°24'1 1.0
2017-Sep-20 02:59S 32°49' E 152°23'0 1.0
2017-Sep-20 02:29S 32°49' E 152°23'0 1.0
2017-Sep-20 01:59S 32°50' E 152°23'0 0.8
2017-Sep-20 01:29S 32°50' E 152°22'0 0.8
2017-Sep-20 00:59S 32°50' E 152°22'0 0.9
2017-Sep-20 00:29S 32°51' E 152°22'0 0.8
2017-Sep-19 23:59S 32°51' E 152°22'0 0.8
2017-Sep-19 23:29S 32°51' E 152°21'0 0.8
2017-Sep-19 22:59S 32°52' E 152°21'0 0.7
2017-Sep-19 22:29S 32°52' E 152°21'0 0.6
2017-Sep-19 21:59S 32°52' E 152°21'0 0.6
2017-Sep-19 21:29S 32°53' E 152°21'0 0.5
2017-Sep-19 21:00S 32°53' E 152°21'0 0.5
2017-Sep-19 20:30S 32°53' E 152°21'0 0.5
2017-Sep-19 19:57S 32°53' E 152°21'0 0.6
2017-Sep-19 19:27S 32°53' E 152°20'0 0.5
2017-Sep-19 18:45S 32°54' E 152°20'0 0.5
2017-Sep-19 18:30S 32°54' E 152°20'0 0.6
2017-Sep-19 17:57S 32°54' E 152°20'0 0.7
2017-Sep-19 17:27S 32°55' E 152°20'0 0.8
2017-Sep-19 17:00S 32°55' E 152°20'0 0.7
2017-Sep-19 16:30S 32°55' E 152°20'0 0.8
2017-Sep-19 16:00S 32°56' E 152°19'1 1.0
2017-Sep-19 15:21S 32°56' E 152°19'0 1.1
2017-Sep-19 15:00S 32°57' E 152°19'1 1.2
2017-Sep-19 14:30S 32°57' E 152°18'1 1.5
2017-Sep-19 14:00S 32°58' E 152°18'1 1.4
2017-Sep-19 13:30S 32°58' E 152°17'1 1.5
2017-Sep-19 13:00S 32°59' E 152°17'1 1.5
2017-Sep-19 12:30S 32°60' E 152°16'1 1.5
2017-Sep-19 11:57S 33°00' E 152°16'1 1.5
2017-Sep-19 11:28S 33°01' E 152°16'1 2.4
2017-Sep-19 10:59S 33°01' E 152°14'3 6.2
2017-Sep-19 10:30S 33°00' E 152°11'5 9.4
2017-Sep-19 10:00S 32°57' E 152°07'3 5.5
2017-Sep-19 09:30S 32°55' E 152°08'612.9
2017-Sep-19 09:00S 32°54' E 152°16'613.0
2017-Sep-19 08:30S 32°53' E 152°24'611.4
2017-Sep-19 08:00S 32°49' E 152°28'611.8
2017-Sep-19 07:30S 32°44' E 152°31'28513.3
2017-Sep-18 10:04S 28°10' E 154°04'313.0
2017-Sep-18 09:52S 28°08' E 154°04'  

Dump ship's entire track history